sensor_id;sensor_type;location;lat;lon;timestamp;pressure;altitude;pressure_sealevel;temperature;humidity
113;BME280;45999;48.808;9.182;2024-02-14T00:00:00;98511.13;;;3.74;nan
113;BME280;45999;48.808;9.182;2024-02-14T00:02:26;98512.94;;;3.73;nan
113;BME280;45999;48.808;9.182;2024-02-14T00:04:53;98523.13;;;3.76;nan
113;BME280;45999;48.808;9.182;2024-02-14T00:07:20;98525.75;;;3.76;nan
113;BME280;45999;48.808;9.182;2024-02-14T00:09:47;98518.84;;;3.67;nan
113;BME280;45999;48.808;9.182;2024-02-14T00:12:14;98521.16;;;3.70;nan
113;BME280;45999;48.808;9.182;2024-02-14T00:14:40;98527.56;;;3.76;nan
113;BME280;45999;48.808;9.182;2024-02-14T00:17:07;98528.22;;;3.78;nan
113;BME280;45999;48.808;9.182;2024-02-14T00:19:35;98523.13;;;3.76;nan
113;BME280;45999;48.808;9.182;2024-02-14T00:22:02;98530.53;;;3.81;nan
113;BME280;45999;48.808;9.182;2024-02-14T00:24:28;98533.97;;;3.89;nan
113;BME280;45999;48.808;9.182;2024-02-14T00:26:55;98530.69;;;3.79;nan
113;BME280;45999;48.808;9.182;2024-02-14T00:29:22;98524.28;;;3.82;nan
113;BME280;45999;48.808;9.182;2024-02-14T00:31:49;98528.38;;;3.92;nan
113;BME280;45999;48.808;9.182;2024-02-14T00:34:15;98524.28;;;3.90;nan
113;BME280;45999;48.808;9.182;2024-02-14T00:36:42;98528.53;;;4.07;nan
113;BME280;45999;48.808;9.182;2024-02-14T00:39:08;98518.97;;;4.14;nan
113;BME280;45999;48.808;9.182;2024-02-14T00:41:35;98528.66;;;4.21;nan
113;BME280;45999;48.808;9.182;2024-02-14T00:44:02;98522.06;;;4.33;nan
113;BME280;45999;48.808;9.182;2024-02-14T00:46:29;98520.25;;;4.34;nan
113;BME280;45999;48.808;9.182;2024-02-14T00:48:56;98518.94;;;4.38;nan
113;BME280;45999;48.808;9.182;2024-02-14T00:51:22;98525.31;;;4.43;nan
113;BME280;45999;48.808;9.182;2024-02-14T00:53:48;98526.31;;;4.42;nan
113;BME280;45999;48.808;9.182;2024-02-14T00:56:15;98527.31;;;4.49;nan
113;BME280;45999;48.808;9.182;2024-02-14T00:58:42;98525.44;;;4.58;nan
113;BME280;45999;48.808;9.182;2024-02-14T01:01:08;98534.81;;;4.60;nan
113;BME280;45999;48.808;9.182;2024-02-14T01:03:35;98530.72;;;4.58;nan
113;BME280;45999;48.808;9.182;2024-02-14T01:06:01;98528.22;;;4.72;nan
113;BME280;45999;48.808;9.182;2024-02-14T01:08:28;98522.78;;;4.66;nan
113;BME280;45999;48.808;9.182;2024-02-14T01:10:56;98530.34;;;4.69;nan
113;BME280;45999;48.808;9.182;2024-02-14T01:13:22;98533.97;;;4.68;nan
113;BME280;45999;48.808;9.182;2024-02-14T01:15:48;98533.47;;;4.72;nan
113;BME280;45999;48.808;9.182;2024-02-14T01:18:15;98536.41;;;4.77;nan
113;BME280;45999;48.808;9.182;2024-02-14T01:20:41;98538.38;;;4.75;nan
113;BME280;45999;48.808;9.182;2024-02-14T01:23:07;98535.41;;;4.78;nan
113;BME280;45999;48.808;9.182;2024-02-14T01:25:34;98531.31;;;4.76;nan
113;BME280;45999;48.808;9.182;2024-02-14T01:28:01;98530.97;;;4.79;nan
113;BME280;45999;48.808;9.182;2024-02-14T01:30:27;98528.13;;;4.88;nan
113;BME280;45999;48.808;9.182;2024-02-14T01:32:54;98521.72;;;4.83;nan
113;BME280;45999;48.808;9.182;2024-02-14T01:35:20;98515.66;;;4.82;nan
113;BME280;45999;48.808;9.182;2024-02-14T01:37:46;98517.81;;;4.79;nan
113;BME280;45999;48.808;9.182;2024-02-14T01:40:13;98514.31;;;4.86;nan
113;BME280;45999;48.808;9.182;2024-02-14T01:42:39;98521.06;;;4.89;nan
113;BME280;45999;48.808;9.182;2024-02-14T01:45:06;98505.41;;;4.87;nan
113;BME280;45999;48.808;9.182;2024-02-14T01:47:32;98512.44;;;4.95;nan
113;BME280;45999;48.808;9.182;2024-02-14T01:50:00;98514.38;;;5.01;nan
113;BME280;45999;48.808;9.182;2024-02-14T01:52:26;98505.69;;;5.00;nan
113;BME280;45999;48.808;9.182;2024-02-14T01:54:54;98509.78;;;5.03;nan
113;BME280;45999;48.808;9.182;2024-02-14T01:57:21;98510.41;;;5.05;nan
113;BME280;45999;48.808;9.182;2024-02-14T01:59:48;98516.09;;;5.16;nan
113;BME280;45999;48.808;9.182;2024-02-14T02:02:16;98506.75;;;5.14;nan
113;BME280;45999;48.808;9.182;2024-02-14T02:04:42;98510.50;;;5.19;nan
113;BME280;45999;48.808;9.182;2024-02-14T02:07:08;98511.25;;;5.28;nan
113;BME280;45999;48.808;9.182;2024-02-14T02:09:35;98503.97;;;5.38;nan
113;BME280;45999;48.808;9.182;2024-02-14T02:12:02;98507.22;;;5.40;nan
113;BME280;45999;48.808;9.182;2024-02-14T02:14:31;98501.25;;;5.46;nan
113;BME280;45999;48.808;9.182;2024-02-14T02:16:58;98499.91;;;5.50;nan
113;BME280;45999;48.808;9.182;2024-02-14T02:19:25;98501.03;;;5.55;nan
113;BME280;45999;48.808;9.182;2024-02-14T02:21:51;98498.22;;;5.57;nan
113;BME280;45999;48.808;9.182;2024-02-14T02:24:18;98497.94;;;5.52;nan
113;BME280;45999;48.808;9.182;2024-02-14T02:26:44;98501.84;;;5.56;nan
113;BME280;45999;48.808;9.182;2024-02-14T02:29:11;98496.50;;;5.64;nan
113;BME280;45999;48.808;9.182;2024-02-14T02:31:37;98496.38;;;5.57;nan
113;BME280;45999;48.808;9.182;2024-02-14T02:34:03;98497.63;;;5.47;nan
113;BME280;45999;48.808;9.182;2024-02-14T02:36:30;98489.53;;;5.48;nan
113;BME280;45999;48.808;9.182;2024-02-14T02:38:56;98486.16;;;5.40;nan
113;BME280;45999;48.808;9.182;2024-02-14T02:41:25;98484.22;;;5.34;nan
113;BME280;45999;48.808;9.182;2024-02-14T02:43:52;98481.00;;;5.46;nan
113;BME280;45999;48.808;9.182;2024-02-14T02:46:19;98484.16;;;5.42;nan
113;BME280;45999;48.808;9.182;2024-02-14T02:48:47;98482.16;;;5.44;nan
113;BME280;45999;48.808;9.182;2024-02-14T02:51:16;98479.75;;;5.34;nan
113;BME280;45999;48.808;9.182;2024-02-14T02:53:42;98472.06;;;5.47;nan
113;BME280;45999;48.808;9.182;2024-02-14T02:56:09;98472.66;;;5.35;nan
113;BME280;45999;48.808;9.182;2024-02-14T02:58:37;98466.09;;;5.31;nan
113;BME280;45999;48.808;9.182;2024-02-14T03:01:08;98470.31;;;5.40;nan
113;BME280;45999;48.808;9.182;2024-02-14T03:03:35;98464.72;;;5.43;nan
113;BME280;45999;48.808;9.182;2024-02-14T03:06:03;98459.50;;;5.35;nan
113;BME280;45999;48.808;9.182;2024-02-14T03:08:29;98449.72;;;5.21;nan
113;BME280;45999;48.808;9.182;2024-02-14T03:10:56;98453.06;;;5.15;nan
113;BME280;45999;48.808;9.182;2024-02-14T03:13:24;98473.00;;;5.09;nan
113;BME280;45999;48.808;9.182;2024-02-14T03:15:51;98473.53;;;5.05;nan
113;BME280;45999;48.808;9.182;2024-02-14T03:18:18;98470.75;;;4.98;nan
113;BME280;45999;48.808;9.182;2024-02-14T03:20:44;98469.66;;;4.93;nan
113;BME280;45999;48.808;9.182;2024-02-14T03:23:11;98472.28;;;4.93;nan
113;BME280;45999;48.808;9.182;2024-02-14T03:25:37;98475.97;;;4.84;nan
113;BME280;45999;48.808;9.182;2024-02-14T03:28:04;98478.97;;;4.73;nan
113;BME280;45999;48.808;9.182;2024-02-14T03:30:34;98483.13;;;4.67;nan
113;BME280;45999;48.808;9.182;2024-02-14T03:33:02;98482.75;;;4.70;nan
113;BME280;45999;48.808;9.182;2024-02-14T03:35:29;98486.22;;;4.71;nan
113;BME280;45999;48.808;9.182;2024-02-14T03:37:55;98491.66;;;4.69;nan
113;BME280;45999;48.808;9.182;2024-02-14T03:40:21;98500.72;;;4.67;nan
113;BME280;45999;48.808;9.182;2024-02-14T03:42:49;98499.28;;;4.95;nan
113;BME280;45999;48.808;9.182;2024-02-14T03:45:16;98499.81;;;4.90;nan
113;BME280;45999;48.808;9.182;2024-02-14T03:47:43;98498.81;;;4.91;nan
113;BME280;45999;48.808;9.182;2024-02-14T03:50:09;98501.22;;;5.01;nan
113;BME280;45999;48.808;9.182;2024-02-14T03:52:36;98506.28;;;5.10;nan
113;BME280;45999;48.808;9.182;2024-02-14T03:55:03;98498.44;;;5.25;nan
113;BME280;45999;48.808;9.182;2024-02-14T03:57:29;98503.13;;;5.37;nan
113;BME280;45999;48.808;9.182;2024-02-14T03:59:59;98506.31;;;5.33;nan
113;BME280;45999;48.808;9.182;2024-02-14T04:02:26;98504.06;;;5.22;nan
113;BME280;45999;48.808;9.182;2024-02-14T04:04:53;98508.56;;;5.13;nan
113;BME280;45999;48.808;9.182;2024-02-14T04:07:19;98500.16;;;5.10;nan
113;BME280;45999;48.808;9.182;2024-02-14T04:09:47;98501.00;;;5.10;nan
113;BME280;45999;48.808;9.182;2024-02-14T04:12:13;98499.50;;;5.16;nan
113;BME280;45999;48.808;9.182;2024-02-14T04:14:39;98496.50;;;5.19;nan
113;BME280;45999;48.808;9.182;2024-02-14T04:17:06;98514.59;;;5.22;nan
113;BME280;45999;48.808;9.182;2024-02-14T04:19:33;98504.09;;;5.14;nan
113;BME280;45999;48.808;9.182;2024-02-14T04:22:00;98511.06;;;5.07;nan
113;BME280;45999;48.808;9.182;2024-02-14T04:24:26;98504.72;;;4.93;nan
113;BME280;45999;48.808;9.182;2024-02-14T04:26:53;98504.56;;;4.87;nan
113;BME280;45999;48.808;9.182;2024-02-14T04:29:20;98504.78;;;4.85;nan
113;BME280;45999;48.808;9.182;2024-02-14T04:31:46;98518.28;;;4.82;nan
113;BME280;45999;48.808;9.182;2024-02-14T04:34:14;98504.41;;;4.88;nan
113;BME280;45999;48.808;9.182;2024-02-14T04:36:40;98516.84;;;4.72;nan
113;BME280;45999;48.808;9.182;2024-02-14T04:39:07;98512.25;;;4.74;nan
113;BME280;45999;48.808;9.182;2024-02-14T04:41:34;98519.16;;;4.67;nan
113;BME280;45999;48.808;9.182;2024-02-14T04:44:04;98528.69;;;4.76;nan
113;BME280;45999;48.808;9.182;2024-02-14T04:46:31;98526.81;;;4.84;nan
113;BME280;45999;48.808;9.182;2024-02-14T04:48:58;98522.66;;;4.98;nan
113;BME280;45999;48.808;9.182;2024-02-14T04:51:25;98531.50;;;5.05;nan
113;BME280;45999;48.808;9.182;2024-02-14T04:53:51;98524.09;;;5.08;nan
113;BME280;45999;48.808;9.182;2024-02-14T04:56:18;98523.84;;;5.18;nan
113;BME280;45999;48.808;9.182;2024-02-14T04:58:44;98529.53;;;5.29;nan
113;BME280;45999;48.808;9.182;2024-02-14T05:01:11;98525.94;;;5.53;nan
113;BME280;45999;48.808;9.182;2024-02-14T05:03:37;98520.94;;;5.58;nan
113;BME280;45999;48.808;9.182;2024-02-14T05:06:04;98526.50;;;5.63;nan
113;BME280;45999;48.808;9.182;2024-02-14T05:08:30;98521.53;;;5.68;nan
113;BME280;45999;48.808;9.182;2024-02-14T05:10:57;98520.84;;;5.74;nan
113;BME280;45999;48.808;9.182;2024-02-14T05:13:23;98521.06;;;5.87;nan
113;BME280;45999;48.808;9.182;2024-02-14T05:15:49;98522.63;;;5.96;nan
113;BME280;45999;48.808;9.182;2024-02-14T05:18:16;98520.31;;;6.01;nan
113;BME280;45999;48.808;9.182;2024-02-14T05:20:42;98522.22;;;6.07;nan
113;BME280;45999;48.808;9.182;2024-02-14T05:23:09;98525.97;;;6.12;nan
113;BME280;45999;48.808;9.182;2024-02-14T05:25:36;98517.28;;;6.04;nan
113;BME280;45999;48.808;9.182;2024-02-14T05:28:03;98520.44;;;5.85;nan
113;BME280;45999;48.808;9.182;2024-02-14T05:30:29;98532.44;;;5.65;nan
113;BME280;45999;48.808;9.182;2024-02-14T05:32:56;98531.63;;;5.64;nan
113;BME280;45999;48.808;9.182;2024-02-14T05:35:23;98522.34;;;5.68;nan
113;BME280;45999;48.808;9.182;2024-02-14T05:37:49;98524.94;;;5.76;nan
113;BME280;45999;48.808;9.182;2024-02-14T05:40:16;98527.06;;;5.81;nan
113;BME280;45999;48.808;9.182;2024-02-14T05:42:43;98511.34;;;5.87;nan
113;BME280;45999;48.808;9.182;2024-02-14T05:45:09;98525.13;;;5.75;nan
113;BME280;45999;48.808;9.182;2024-02-14T05:47:36;98524.34;;;5.66;nan
113;BME280;45999;48.808;9.182;2024-02-14T05:50:02;98524.34;;;5.66;nan
113;BME280;45999;48.808;9.182;2024-02-14T05:52:29;98518.78;;;5.61;nan
113;BME280;45999;48.808;9.182;2024-02-14T05:54:55;98521.94;;;5.57;nan
113;BME280;45999;48.808;9.182;2024-02-14T05:57:21;98522.63;;;5.51;nan
113;BME280;45999;48.808;9.182;2024-02-14T05:59:48;98520.72;;;5.45;nan
113;BME280;45999;48.808;9.182;2024-02-14T06:02:14;98517.72;;;5.48;nan
113;BME280;45999;48.808;9.182;2024-02-14T06:04:40;98516.78;;;5.41;nan
113;BME280;45999;48.808;9.182;2024-02-14T06:07:08;98509.03;;;5.39;nan
113;BME280;45999;48.808;9.182;2024-02-14T06:09:36;98515.97;;;5.40;nan
113;BME280;45999;48.808;9.182;2024-02-14T06:12:02;98517.06;;;5.46;nan
113;BME280;45999;48.808;9.182;2024-02-14T06:14:29;98518.06;;;5.45;nan
113;BME280;45999;48.808;9.182;2024-02-14T06:16:56;98508.47;;;5.52;nan
113;BME280;45999;48.808;9.182;2024-02-14T06:19:22;98509.16;;;5.46;nan
113;BME280;45999;48.808;9.182;2024-02-14T06:21:49;98513.16;;;5.42;nan
113;BME280;45999;48.808;9.182;2024-02-14T06:24:15;98511.88;;;5.38;nan
113;BME280;45999;48.808;9.182;2024-02-14T06:26:44;98523.72;;;5.42;nan
113;BME280;45999;48.808;9.182;2024-02-14T06:29:10;98521.25;;;5.40;nan
113;BME280;45999;48.808;9.182;2024-02-14T06:31:37;98530.44;;;5.44;nan
113;BME280;45999;48.808;9.182;2024-02-14T06:34:03;98536.81;;;5.50;nan
113;BME280;45999;48.808;9.182;2024-02-14T06:36:31;98538.66;;;5.49;nan
113;BME280;45999;48.808;9.182;2024-02-14T06:38:58;98540.28;;;5.50;nan
113;BME280;45999;48.808;9.182;2024-02-14T06:41:24;98535.66;;;5.52;nan
113;BME280;45999;48.808;9.182;2024-02-14T06:43:51;98547.50;;;5.56;nan
113;BME280;45999;48.808;9.182;2024-02-14T06:46:17;98544.41;;;5.53;nan
113;BME280;45999;48.808;9.182;2024-02-14T06:48:43;98546.69;;;5.56;nan
113;BME280;45999;48.808;9.182;2024-02-14T06:51:10;98546.31;;;5.59;nan
113;BME280;45999;48.808;9.182;2024-02-14T06:53:36;98545.56;;;5.50;nan
113;BME280;45999;48.808;9.182;2024-02-14T06:56:02;98544.84;;;5.56;nan
113;BME280;45999;48.808;9.182;2024-02-14T06:58:29;98541.94;;;5.51;nan
113;BME280;45999;48.808;9.182;2024-02-14T07:00:55;98539.75;;;5.55;nan
113;BME280;45999;48.808;9.182;2024-02-14T07:03:22;98529.28;;;5.69;nan
113;BME280;45999;48.808;9.182;2024-02-14T07:05:48;98543.91;;;5.72;nan
113;BME280;45999;48.808;9.182;2024-02-14T07:08:14;98543.13;;;5.71;nan
113;BME280;45999;48.808;9.182;2024-02-14T07:10:41;98548.91;;;5.67;nan
113;BME280;45999;48.808;9.182;2024-02-14T07:13:07;98538.69;;;5.64;nan
113;BME280;45999;48.808;9.182;2024-02-14T07:15:34;98547.72;;;5.69;nan
113;BME280;45999;48.808;9.182;2024-02-14T07:18:00;98542.22;;;5.79;nan
113;BME280;45999;48.808;9.182;2024-02-14T07:20:27;98550.47;;;5.84;nan
113;BME280;45999;48.808;9.182;2024-02-14T07:22:53;98559.00;;;5.86;nan
113;BME280;45999;48.808;9.182;2024-02-14T07:25:21;98558.13;;;5.93;nan
113;BME280;45999;48.808;9.182;2024-02-14T07:27:49;98561.25;;;5.97;nan
113;BME280;45999;48.808;9.182;2024-02-14T07:30:16;98557.06;;;6.02;nan
113;BME280;45999;48.808;9.182;2024-02-14T07:32:46;98560.81;;;6.08;nan
113;BME280;45999;48.808;9.182;2024-02-14T07:35:12;98557.81;;;6.11;nan
113;BME280;45999;48.808;9.182;2024-02-14T07:37:39;98563.72;;;6.13;nan
113;BME280;45999;48.808;9.182;2024-02-14T07:40:07;98559.28;;;6.13;nan
113;BME280;45999;48.808;9.182;2024-02-14T07:42:34;98576.88;;;6.21;nan
113;BME280;45999;48.808;9.182;2024-02-14T07:45:00;98581.34;;;6.35;nan
113;BME280;45999;48.808;9.182;2024-02-14T07:47:28;98580.63;;;6.41;nan
113;BME280;45999;48.808;9.182;2024-02-14T07:49:55;98580.28;;;6.44;nan
113;BME280;45999;48.808;9.182;2024-02-14T07:52:22;98583.53;;;6.46;nan
113;BME280;45999;48.808;9.182;2024-02-14T07:54:55;98580.47;;;6.57;nan
113;BME280;45999;48.808;9.182;2024-02-14T07:57:22;98585.56;;;6.73;nan
113;BME280;45999;48.808;9.182;2024-02-14T07:59:50;98580.13;;;7.03;nan
113;BME280;45999;48.808;9.182;2024-02-14T08:02:17;98585.63;;;7.23;nan
113;BME280;45999;48.808;9.182;2024-02-14T08:04:44;98587.88;;;7.55;nan
113;BME280;45999;48.808;9.182;2024-02-14T08:07:10;98583.28;;;7.63;nan
113;BME280;45999;48.808;9.182;2024-02-14T08:09:37;98586.00;;;7.70;nan
113;BME280;45999;48.808;9.182;2024-02-14T08:12:04;98590.25;;;7.71;nan
113;BME280;45999;48.808;9.182;2024-02-14T08:14:31;98594.44;;;7.80;nan
113;BME280;45999;48.808;9.182;2024-02-14T08:16:57;98601.44;;;7.87;nan
113;BME280;45999;48.808;9.182;2024-02-14T08:19:24;98601.84;;;7.91;nan
113;BME280;45999;48.808;9.182;2024-02-14T08:21:50;98606.00;;;7.93;nan
113;BME280;45999;48.808;9.182;2024-02-14T08:24:16;98599.16;;;7.63;nan
113;BME280;45999;48.808;9.182;2024-02-14T08:26:43;98601.59;;;7.65;nan
113;BME280;45999;48.808;9.182;2024-02-14T08:29:09;98601.34;;;7.60;nan
113;BME280;45999;48.808;9.182;2024-02-14T08:31:36;98601.66;;;7.50;nan
113;BME280;45999;48.808;9.182;2024-02-14T08:34:03;98611.47;;;7.56;nan
113;BME280;45999;48.808;9.182;2024-02-14T08:36:29;98614.38;;;7.61;nan
113;BME280;45999;48.808;9.182;2024-02-14T08:38:55;98617.03;;;7.61;nan
113;BME280;45999;48.808;9.182;2024-02-14T08:41:22;98614.72;;;7.73;nan
113;BME280;45999;48.808;9.182;2024-02-14T08:43:49;98610.50;;;7.78;nan
113;BME280;45999;48.808;9.182;2024-02-14T08:46:17;98609.75;;;7.84;nan
113;BME280;45999;48.808;9.182;2024-02-14T08:48:43;98612.91;;;7.94;nan
113;BME280;45999;48.808;9.182;2024-02-14T08:51:12;98604.53;;;8.12;nan
113;BME280;45999;48.808;9.182;2024-02-14T08:53:39;98602.63;;;8.27;nan
113;BME280;45999;48.808;9.182;2024-02-14T08:56:06;98602.31;;;8.36;nan
113;BME280;45999;48.808;9.182;2024-02-14T08:58:32;98609.19;;;8.31;nan
113;BME280;45999;48.808;9.182;2024-02-14T09:01:00;98606.03;;;8.42;nan
113;BME280;45999;48.808;9.182;2024-02-14T09:03:26;98604.72;;;8.59;nan
113;BME280;45999;48.808;9.182;2024-02-14T09:05:53;98596.78;;;8.59;nan
113;BME280;45999;48.808;9.182;2024-02-14T09:08:19;98598.91;;;8.70;nan
113;BME280;45999;48.808;9.182;2024-02-14T09:10:46;98603.06;;;8.79;nan
113;BME280;45999;48.808;9.182;2024-02-14T09:13:13;98598.53;;;8.79;nan
113;BME280;45999;48.808;9.182;2024-02-14T09:15:39;98605.78;;;8.92;nan
113;BME280;45999;48.808;9.182;2024-02-14T09:18:06;98598.59;;;8.86;nan
113;BME280;45999;48.808;9.182;2024-02-14T09:20:32;98604.75;;;8.93;nan
113;BME280;45999;48.808;9.182;2024-02-14T09:22:59;98610.59;;;9.16;nan
113;BME280;45999;48.808;9.182;2024-02-14T09:25:26;98605.38;;;9.29;nan
113;BME280;45999;48.808;9.182;2024-02-14T09:27:52;98612.91;;;9.25;nan
113;BME280;45999;48.808;9.182;2024-02-14T09:30:19;98613.34;;;8.95;nan
113;BME280;45999;48.808;9.182;2024-02-14T09:32:45;98607.13;;;8.81;nan
113;BME280;45999;48.808;9.182;2024-02-14T09:35:12;98605.06;;;8.77;nan
113;BME280;45999;48.808;9.182;2024-02-14T09:37:39;98604.16;;;8.91;nan
113;BME280;45999;48.808;9.182;2024-02-14T09:40:06;98596.03;;;8.99;nan
113;BME280;45999;48.808;9.182;2024-02-14T09:42:44;98601.16;;;9.07;nan
113;BME280;45999;48.808;9.182;2024-02-14T09:45:11;98597.34;;;9.16;nan
113;BME280;45999;48.808;9.182;2024-02-14T09:47:39;98600.59;;;9.18;nan
113;BME280;45999;48.808;9.182;2024-02-14T09:50:06;98588.63;;;9.28;nan
113;BME280;45999;48.808;9.182;2024-02-14T09:52:35;98593.00;;;9.55;nan
113;BME280;45999;48.808;9.182;2024-02-14T09:55:03;98590.34;;;9.49;nan
113;BME280;45999;48.808;9.182;2024-02-14T09:57:30;98599.66;;;9.25;nan
113;BME280;45999;48.808;9.182;2024-02-14T09:59:59;98598.88;;;9.38;nan
113;BME280;45999;48.808;9.182;2024-02-14T10:02:26;98601.16;;;9.54;nan
113;BME280;45999;48.808;9.182;2024-02-14T10:04:52;98599.75;;;9.58;nan
113;BME280;45999;48.808;9.182;2024-02-14T10:07:19;98600.91;;;9.96;nan
113;BME280;45999;48.808;9.182;2024-02-14T10:09:45;98589.72;;;10.33;nan
113;BME280;45999;48.808;9.182;2024-02-14T10:12:12;98579.03;;;10.78;nan
113;BME280;45999;48.808;9.182;2024-02-14T10:14:38;98576.50;;;11.16;nan
113;BME280;45999;48.808;9.182;2024-02-14T10:17:05;98579.13;;;11.23;nan
113;BME280;45999;48.808;9.182;2024-02-14T10:19:33;98587.16;;;11.09;nan
113;BME280;45999;48.808;9.182;2024-02-14T10:22:00;98584.91;;;11.13;nan
113;BME280;45999;48.808;9.182;2024-02-14T10:24:30;98589.63;;;11.04;nan
113;BME280;45999;48.808;9.182;2024-02-14T10:26:59;98581.63;;;11.04;nan
113;BME280;45999;48.808;9.182;2024-02-14T10:29:25;98582.03;;;11.01;nan
113;BME280;45999;48.808;9.182;2024-02-14T10:31:52;98581.78;;;11.23;nan
113;BME280;45999;48.808;9.182;2024-02-14T10:34:24;98583.38;;;11.37;nan
113;BME280;45999;48.808;9.182;2024-02-14T10:36:56;98581.03;;;11.53;nan
113;BME280;45999;48.808;9.182;2024-02-14T10:39:25;98572.44;;;11.58;nan
113;BME280;45999;48.808;9.182;2024-02-14T10:41:52;98582.84;;;11.72;nan
113;BME280;45999;48.808;9.182;2024-02-14T10:44:19;98583.78;;;11.84;nan
113;BME280;45999;48.808;9.182;2024-02-14T10:46:46;98583.50;;;11.61;nan
113;BME280;45999;48.808;9.182;2024-02-14T10:49:15;98579.19;;;11.67;nan
113;BME280;45999;48.808;9.182;2024-02-14T10:51:43;98579.44;;;11.90;nan
113;BME280;45999;48.808;9.182;2024-02-14T10:54:14;98572.59;;;12.07;nan
113;BME280;45999;48.808;9.182;2024-02-14T10:56:43;98587.00;;;11.99;nan
113;BME280;45999;48.808;9.182;2024-02-14T10:59:16;98577.28;;;12.05;nan
113;BME280;45999;48.808;9.182;2024-02-14T11:01:44;98574.84;;;12.03;nan
113;BME280;45999;48.808;9.182;2024-02-14T11:04:11;98583.06;;;12.02;nan
113;BME280;45999;48.808;9.182;2024-02-14T11:06:45;98595.91;;;12.11;nan
113;BME280;45999;48.808;9.182;2024-02-14T11:09:12;98608.19;;;12.12;nan
113;BME280;45999;48.808;9.182;2024-02-14T11:11:43;98604.72;;;12.12;nan
113;BME280;45999;48.808;9.182;2024-02-14T11:14:14;98607.81;;;12.09;nan
113;BME280;45999;48.808;9.182;2024-02-14T11:16:41;98597.81;;;12.04;nan
113;BME280;45999;48.808;9.182;2024-02-14T11:19:13;98592.78;;;12.21;nan
113;BME280;45999;48.808;9.182;2024-02-14T11:21:42;98580.75;;;12.12;nan
113;BME280;45999;48.808;9.182;2024-02-14T11:24:13;98584.44;;;12.11;nan
113;BME280;45999;48.808;9.182;2024-02-14T11:26:50;98594.16;;;11.99;nan
113;BME280;45999;48.808;9.182;2024-02-14T11:29:18;98592.91;;;12.01;nan
113;BME280;45999;48.808;9.182;2024-02-14T11:31:45;98592.13;;;11.94;nan
113;BME280;45999;48.808;9.182;2024-02-14T11:34:16;98597.81;;;12.04;nan
113;BME280;45999;48.808;9.182;2024-02-14T11:36:44;98597.53;;;12.12;nan
113;BME280;45999;48.808;9.182;2024-02-14T11:39:11;98596.31;;;12.08;nan
113;BME280;45999;48.808;9.182;2024-02-14T11:41:39;98587.66;;;12.19;nan
113;BME280;45999;48.808;9.182;2024-02-14T11:44:07;98595.88;;;12.18;nan
113;BME280;45999;48.808;9.182;2024-02-14T11:46:35;98587.81;;;12.24;nan
113;BME280;45999;48.808;9.182;2024-02-14T11:49:03;98597.03;;;12.28;nan
113;BME280;45999;48.808;9.182;2024-02-14T11:51:32;98586.84;;;12.43;nan
113;BME280;45999;48.808;9.182;2024-02-14T11:54:01;98591.25;;;12.56;nan
113;BME280;45999;48.808;9.182;2024-02-14T11:56:33;98591.91;;;12.51;nan
113;BME280;45999;48.808;9.182;2024-02-14T11:59:07;98592.50;;;12.53;nan
113;BME280;45999;48.808;9.182;2024-02-14T12:01:36;98590.03;;;12.58;nan
113;BME280;45999;48.808;9.182;2024-02-14T12:04:05;98585.69;;;12.82;nan
113;BME280;45999;48.808;9.182;2024-02-14T12:06:33;98590.75;;;12.65;nan
113;BME280;45999;48.808;9.182;2024-02-14T12:09:01;98596.66;;;12.49;nan
113;BME280;45999;48.808;9.182;2024-02-14T12:11:31;98595.84;;;12.49;nan
113;BME280;45999;48.808;9.182;2024-02-14T12:14:02;98589.72;;;12.42;nan
113;BME280;45999;48.808;9.182;2024-02-14T12:16:29;98584.91;;;12.57;nan
113;BME280;45999;48.808;9.182;2024-02-14T12:19:14;98585.75;;;12.75;nan
113;BME280;45999;48.808;9.182;2024-02-14T12:21:41;98587.03;;;12.91;nan
113;BME280;45999;48.808;9.182;2024-02-14T12:24:09;98584.41;;;12.84;nan
113;BME280;45999;48.808;9.182;2024-02-14T12:26:38;98586.88;;;12.86;nan
113;BME280;45999;48.808;9.182;2024-02-14T12:29:05;98582.78;;;12.83;nan
113;BME280;45999;48.808;9.182;2024-02-14T12:31:32;98587.41;;;12.76;nan
113;BME280;45999;48.808;9.182;2024-02-14T12:34:00;98586.50;;;12.82;nan
113;BME280;45999;48.808;9.182;2024-02-14T12:36:28;98574.78;;;12.83;nan
113;BME280;45999;48.808;9.182;2024-02-14T12:38:55;98577.81;;;12.87;nan
113;BME280;45999;48.808;9.182;2024-02-14T12:41:21;98577.66;;;13.06;nan
113;BME280;45999;48.808;9.182;2024-02-14T12:43:49;98566.34;;;13.11;nan
113;BME280;45999;48.808;9.182;2024-02-14T12:46:15;98568.31;;;13.33;nan
113;BME280;45999;48.808;9.182;2024-02-14T12:48:41;98566.84;;;13.37;nan
113;BME280;45999;48.808;9.182;2024-02-14T12:51:08;98564.72;;;13.57;nan
113;BME280;45999;48.808;9.182;2024-02-14T12:53:34;98557.41;;;13.35;nan
113;BME280;45999;48.808;9.182;2024-02-14T12:56:01;98553.59;;;13.60;nan
113;BME280;45999;48.808;9.182;2024-02-14T12:58:27;98541.34;;;13.82;nan
113;BME280;45999;48.808;9.182;2024-02-14T13:00:54;98540.78;;;13.92;nan
113;BME280;45999;48.808;9.182;2024-02-14T13:03:20;98548.06;;;13.73;nan
113;BME280;45999;48.808;9.182;2024-02-14T13:05:47;98546.63;;;13.59;nan
113;BME280;45999;48.808;9.182;2024-02-14T13:08:13;98541.59;;;13.51;nan
113;BME280;45999;48.808;9.182;2024-02-14T13:10:41;98545.72;;;13.65;nan
113;BME280;45999;48.808;9.182;2024-02-14T13:13:08;98550.91;;;13.60;nan
113;BME280;45999;48.808;9.182;2024-02-14T13:15:36;98561.78;;;13.77;nan
113;BME280;45999;48.808;9.182;2024-02-14T13:18:02;98550.00;;;13.66;nan
113;BME280;45999;48.808;9.182;2024-02-14T13:20:29;98553.16;;;13.63;nan
113;BME280;45999;48.808;9.182;2024-02-14T13:22:55;98535.75;;;13.72;nan
113;BME280;45999;48.808;9.182;2024-02-14T13:25:22;98537.69;;;13.65;nan
113;BME280;45999;48.808;9.182;2024-02-14T13:27:48;98540.00;;;13.62;nan
113;BME280;45999;48.808;9.182;2024-02-14T13:30:14;98532.69;;;13.69;nan
113;BME280;45999;48.808;9.182;2024-02-14T13:32:41;98532.66;;;13.57;nan
113;BME280;45999;48.808;9.182;2024-02-14T13:35:07;98531.78;;;13.63;nan
113;BME280;45999;48.808;9.182;2024-02-14T13:37:34;98532.31;;;13.54;nan
113;BME280;45999;48.808;9.182;2024-02-14T13:40:01;98536.03;;;13.53;nan
113;BME280;45999;48.808;9.182;2024-02-14T13:42:37;98535.81;;;13.54;nan
113;BME280;45999;48.808;9.182;2024-02-14T13:45:08;98535.97;;;13.71;nan
113;BME280;45999;48.808;9.182;2024-02-14T13:47:36;98532.16;;;13.78;nan
113;BME280;45999;48.808;9.182;2024-02-14T13:50:07;98528.66;;;13.78;nan
113;BME280;45999;48.808;9.182;2024-02-14T13:52:34;98537.31;;;13.91;nan